sensor_id;sensor_type;location;lat;lon;timestamp;temperature;humidity
78704;SHT31;68034;51.966;5.676;2023-04-22T00:02:07;12.6;67.4
78704;SHT31;68034;51.966;5.676;2023-04-22T00:04:39;12.6;67.5
78704;SHT31;68034;51.966;5.676;2023-04-22T00:07:09;12.5;68.2
78704;SHT31;68034;51.966;5.676;2023-04-22T00:09:38;12.5;67.8
78704;SHT31;68034;51.966;5.676;2023-04-22T00:12:07;12.5;67.9
78704;SHT31;68034;51.966;5.676;2023-04-22T00:14:37;12.4;68.1
78704;SHT31;68034;51.966;5.676;2023-04-22T00:17:06;12.4;67.8
78704;SHT31;68034;51.966;5.676;2023-04-22T00:19:35;12.4;67.6
78704;SHT31;68034;51.966;5.676;2023-04-22T00:22:04;12.4;67.6
78704;SHT31;68034;51.966;5.676;2023-04-22T00:24:33;12.4;67.5
78704;SHT31;68034;51.966;5.676;2023-04-22T00:27:01;12.4;67.4
78704;SHT31;68034;51.966;5.676;2023-04-22T00:29:30;12.4;66.8
78704;SHT31;68034;51.966;5.676;2023-04-22T00:31:59;12.3;67.1
78704;SHT31;68034;51.966;5.676;2023-04-22T00:34:28;12.3;67.6
78704;SHT31;68034;51.966;5.676;2023-04-22T00:36:57;12.3;66.8
78704;SHT31;68034;51.966;5.676;2023-04-22T00:39:26;12.3;67.1
78704;SHT31;68034;51.966;5.676;2023-04-22T00:41:55;12.2;67.7
78704;SHT31;68034;51.966;5.676;2023-04-22T00:44:25;12.2;68.7
78704;SHT31;68034;51.966;5.676;2023-04-22T00:46:56;12.2;69.3
78704;SHT31;68034;51.966;5.676;2023-04-22T00:49:27;12.1;69.8
78704;SHT31;68034;51.966;5.676;2023-04-22T00:51:56;12.1;69.7
78704;SHT31;68034;51.966;5.676;2023-04-22T00:54:25;12.1;69.9
78704;SHT31;68034;51.966;5.676;2023-04-22T00:56:55;12.1;69.6
78704;SHT31;68034;51.966;5.676;2023-04-22T00:59:25;12.1;70.1
78704;SHT31;68034;51.966;5.676;2023-04-22T01:01:55;12.1;70.4
78704;SHT31;68034;51.966;5.676;2023-04-22T01:04:26;12.0;70.5
78704;SHT31;68034;51.966;5.676;2023-04-22T01:06:57;12.0;70.7
78704;SHT31;68034;51.966;5.676;2023-04-22T01:09:28;12.0;70.6
78704;SHT31;68034;51.966;5.676;2023-04-22T01:12:00;12.0;70.5
78704;SHT31;68034;51.966;5.676;2023-04-22T01:14:29;12.0;70.9
78704;SHT31;68034;51.966;5.676;2023-04-22T01:16:58;12.0;71.1
78704;SHT31;68034;51.966;5.676;2023-04-22T01:19:27;12.0;71.0
78704;SHT31;68034;51.966;5.676;2023-04-22T01:21:59;12.0;71.2
78704;SHT31;68034;51.966;5.676;2023-04-22T01:24:29;12.0;70.8
78704;SHT31;68034;51.966;5.676;2023-04-22T01:26:58;12.0;70.7
78704;SHT31;68034;51.966;5.676;2023-04-22T01:29:27;12.0;70.7
78704;SHT31;68034;51.966;5.676;2023-04-22T01:31:56;12.0;70.4
78704;SHT31;68034;51.966;5.676;2023-04-22T01:34:28;12.1;70.0
78704;SHT31;68034;51.966;5.676;2023-04-22T01:36:57;12.1;70.2
78704;SHT31;68034;51.966;5.676;2023-04-22T01:39:27;12.1;69.8
78704;SHT31;68034;51.966;5.676;2023-04-22T01:41:56;12.1;69.9
78704;SHT31;68034;51.966;5.676;2023-04-22T01:44:30;12.2;69.8
78704;SHT31;68034;51.966;5.676;2023-04-22T01:47:01;12.2;69.8
78704;SHT31;68034;51.966;5.676;2023-04-22T01:49:30;12.2;70.2
78704;SHT31;68034;51.966;5.676;2023-04-22T01:51:58;12.2;69.8
78704;SHT31;68034;51.966;5.676;2023-04-22T01:54:27;12.1;69.8
78704;SHT31;68034;51.966;5.676;2023-04-22T01:56:58;12.1;69.8
78704;SHT31;68034;51.966;5.676;2023-04-22T01:59:28;12.1;70.2
78704;SHT31;68034;51.966;5.676;2023-04-22T02:01:56;12.1;70.3
78704;SHT31;68034;51.966;5.676;2023-04-22T02:04:25;12.1;70.3
78704;SHT31;68034;51.966;5.676;2023-04-22T02:06:54;12.0;70.3
78704;SHT31;68034;51.966;5.676;2023-04-22T02:09:23;12.0;70.1
78704;SHT31;68034;51.966;5.676;2023-04-22T02:11:52;12.0;70.2
78704;SHT31;68034;51.966;5.676;2023-04-22T02:14:21;12.0;70.6
78704;SHT31;68034;51.966;5.676;2023-04-22T02:16:49;12.0;70.8
78704;SHT31;68034;51.966;5.676;2023-04-22T02:19:21;12.0;70.7
78704;SHT31;68034;51.966;5.676;2023-04-22T02:21:50;12.0;70.7
78704;SHT31;68034;51.966;5.676;2023-04-22T02:24:19;12.0;70.5
78704;SHT31;68034;51.966;5.676;2023-04-22T02:26:48;11.9;70.6
78704;SHT31;68034;51.966;5.676;2023-04-22T02:29:17;11.9;70.7
78704;SHT31;68034;51.966;5.676;2023-04-22T02:31:46;11.9;70.8
78704;SHT31;68034;51.966;5.676;2023-04-22T02:34:15;11.9;70.8
78704;SHT31;68034;51.966;5.676;2023-04-22T02:36:44;11.9;70.8
78704;SHT31;68034;51.966;5.676;2023-04-22T02:39:13;11.9;70.5
78704;SHT31;68034;51.966;5.676;2023-04-22T02:41:42;11.9;70.6
78704;SHT31;68034;51.966;5.676;2023-04-22T02:44:12;11.9;70.8
78704;SHT31;68034;51.966;5.676;2023-04-22T02:46:43;11.9;71.1
78704;SHT31;68034;51.966;5.676;2023-04-22T02:49:12;11.9;71.1
78704;SHT31;68034;51.966;5.676;2023-04-22T02:51:41;11.9;71.4
78704;SHT31;68034;51.966;5.676;2023-04-22T02:54:10;11.9;71.5
78704;SHT31;68034;51.966;5.676;2023-04-22T02:56:38;11.9;71.4
78704;SHT31;68034;51.966;5.676;2023-04-22T02:59:07;11.9;71.3
78704;SHT31;68034;51.966;5.676;2023-04-22T03:01:36;11.9;71.2
78704;SHT31;68034;51.966;5.676;2023-04-22T03:04:05;11.9;71.3
78704;SHT31;68034;51.966;5.676;2023-04-22T03:06:34;12.0;71.6
78704;SHT31;68034;51.966;5.676;2023-04-22T03:09:04;12.1;71.3
78704;SHT31;68034;51.966;5.676;2023-04-22T03:11:34;12.3;70.7
78704;SHT31;68034;51.966;5.676;2023-04-22T03:14:03;12.5;69.7
78704;SHT31;68034;51.966;5.676;2023-04-22T03:16:32;12.6;69.3
78704;SHT31;68034;51.966;5.676;2023-04-22T03:19:09;12.7;68.6
78704;SHT31;68034;51.966;5.676;2023-04-22T03:21:38;12.9;67.9
78704;SHT31;68034;51.966;5.676;2023-04-22T03:24:07;12.9;67.5
78704;SHT31;68034;51.966;5.676;2023-04-22T03:26:36;12.9;66.9
78704;SHT31;68034;51.966;5.676;2023-04-22T03:29:05;12.9;67.0
78704;SHT31;68034;51.966;5.676;2023-04-22T03:31:36;12.8;67.3
78704;SHT31;68034;51.966;5.676;2023-04-22T03:34:05;12.7;67.5
78704;SHT31;68034;51.966;5.676;2023-04-22T03:36:34;12.7;67.6
78704;SHT31;68034;51.966;5.676;2023-04-22T03:39:02;12.6;67.9
78704;SHT31;68034;51.966;5.676;2023-04-22T03:41:33;12.5;68.2
78704;SHT31;68034;51.966;5.676;2023-04-22T03:44:02;12.5;68.5
78704;SHT31;68034;51.966;5.676;2023-04-22T03:46:31;12.4;68.7
78704;SHT31;68034;51.966;5.676;2023-04-22T03:48:59;12.4;69.3
78704;SHT31;68034;51.966;5.676;2023-04-22T03:51:28;12.3;69.4
78704;SHT31;68034;51.966;5.676;2023-04-22T03:53:57;12.3;69.6
78704;SHT31;68034;51.966;5.676;2023-04-22T03:56:28;12.2;69.8
78704;SHT31;68034;51.966;5.676;2023-04-22T03:58:57;12.2;70.5
78704;SHT31;68034;51.966;5.676;2023-04-22T04:01:25;12.1;70.5
78704;SHT31;68034;51.966;5.676;2023-04-22T04:03:54;12.1;70.7
78704;SHT31;68034;51.966;5.676;2023-04-22T04:06:23;12.0;71.1
78704;SHT31;68034;51.966;5.676;2023-04-22T04:08:52;12.0;71.3
78704;SHT31;68034;51.966;5.676;2023-04-22T04:11:21;12.0;71.2
78704;SHT31;68034;51.966;5.676;2023-04-22T04:13:50;12.0;71.5
78704;SHT31;68034;51.966;5.676;2023-04-22T04:16:19;11.9;71.9
78704;SHT31;68034;51.966;5.676;2023-04-22T04:18:50;11.9;71.8
78704;SHT31;68034;51.966;5.676;2023-04-22T04:21:19;11.9;71.9
78704;SHT31;68034;51.966;5.676;2023-04-22T04:23:48;11.9;71.8
78704;SHT31;68034;51.966;5.676;2023-04-22T04:26:17;11.9;72.2
78704;SHT31;68034;51.966;5.676;2023-04-22T04:28:46;11.9;72.0
78704;SHT31;68034;51.966;5.676;2023-04-22T04:31:17;11.9;72.0
78704;SHT31;68034;51.966;5.676;2023-04-22T04:33:46;11.8;72.2
78704;SHT31;68034;51.966;5.676;2023-04-22T04:36:15;11.8;72.5
78704;SHT31;68034;51.966;5.676;2023-04-22T04:38:45;11.8;72.4
78704;SHT31;68034;51.966;5.676;2023-04-22T04:41:16;11.8;72.0
78704;SHT31;68034;51.966;5.676;2023-04-22T04:43:46;11.8;72.3
78704;SHT31;68034;51.966;5.676;2023-04-22T04:46:15;11.8;72.6
78704;SHT31;68034;51.966;5.676;2023-04-22T04:48:45;11.8;72.5
78704;SHT31;68034;51.966;5.676;2023-04-22T04:51:16;11.8;72.7
78704;SHT31;68034;51.966;5.676;2023-04-22T04:53:44;11.8;72.7
78704;SHT31;68034;51.966;5.676;2023-04-22T04:56:13;11.8;73.0
78704;SHT31;68034;51.966;5.676;2023-04-22T04:58:42;11.8;72.7
78704;SHT31;68034;51.966;5.676;2023-04-22T05:01:11;11.8;72.7
78704;SHT31;68034;51.966;5.676;2023-04-22T05:03:39;11.8;72.8
78704;SHT31;68034;51.966;5.676;2023-04-22T05:06:08;11.8;73.0
78704;SHT31;68034;51.966;5.676;2023-04-22T05:08:40;11.8;73.1
78704;SHT31;68034;51.966;5.676;2023-04-22T05:11:08;11.8;73.0
78704;SHT31;68034;51.966;5.676;2023-04-22T05:13:37;11.8;73.1
78704;SHT31;68034;51.966;5.676;2023-04-22T05:16:06;11.8;73.4
78704;SHT31;68034;51.966;5.676;2023-04-22T05:18:35;11.8;73.5
78704;SHT31;68034;51.966;5.676;2023-04-22T05:21:06;11.8;73.5
78704;SHT31;68034;51.966;5.676;2023-04-22T05:23:36;11.8;73.6
78704;SHT31;68034;51.966;5.676;2023-04-22T05:26:05;11.8;73.6
78704;SHT31;68034;51.966;5.676;2023-04-22T05:28:34;11.8;73.6
78704;SHT31;68034;51.966;5.676;2023-04-22T05:31:03;11.8;73.8
78704;SHT31;68034;51.966;5.676;2023-04-22T05:33:32;11.8;74.0
78704;SHT31;68034;51.966;5.676;2023-04-22T05:36:01;11.8;74.1
78704;SHT31;68034;51.966;5.676;2023-04-22T05:38:29;11.8;74.2
78704;SHT31;68034;51.966;5.676;2023-04-22T05:40:58;11.8;74.3
78704;SHT31;68034;51.966;5.676;2023-04-22T05:43:27;11.8;74.5
78704;SHT31;68034;51.966;5.676;2023-04-22T05:45:56;11.8;74.6
78704;SHT31;68034;51.966;5.676;2023-04-22T05:48:25;11.8;74.7
78704;SHT31;68034;51.966;5.676;2023-04-22T05:50:53;11.8;74.5
78704;SHT31;68034;51.966;5.676;2023-04-22T05:53:22;11.8;74.6
78704;SHT31;68034;51.966;5.676;2023-04-22T05:55:51;11.8;74.7
78704;SHT31;68034;51.966;5.676;2023-04-22T05:58:20;11.8;74.9
78704;SHT31;68034;51.966;5.676;2023-04-22T06:00:49;11.9;74.9
78704;SHT31;68034;51.966;5.676;2023-04-22T06:03:18;11.9;75.2
78704;SHT31;68034;51.966;5.676;2023-04-22T06:05:47;11.9;75.2
78704;SHT31;68034;51.966;5.676;2023-04-22T06:08:16;11.9;75.4
78704;SHT31;68034;51.966;5.676;2023-04-22T06:10:45;11.9;75.5
78704;SHT31;68034;51.966;5.676;2023-04-22T06:13:14;11.9;75.6
78704;SHT31;68034;51.966;5.676;2023-04-22T06:15:42;11.9;75.9
78704;SHT31;68034;51.966;5.676;2023-04-22T06:18:11;12.0;75.8
78704;SHT31;68034;51.966;5.676;2023-04-22T06:20:40;12.0;75.9
78704;SHT31;68034;51.966;5.676;2023-04-22T06:23:08;12.0;75.9
78704;SHT31;68034;51.966;5.676;2023-04-22T06:25:37;12.0;75.8
78704;SHT31;68034;51.966;5.676;2023-04-22T06:28:06;12.0;75.7
78704;SHT31;68034;51.966;5.676;2023-04-22T06:30:35;12.1;75.7
78704;SHT31;68034;51.966;5.676;2023-04-22T06:33:04;12.1;75.7
78704;SHT31;68034;51.966;5.676;2023-04-22T06:35:34;12.1;75.9
78704;SHT31;68034;51.966;5.676;2023-04-22T06:38:03;12.1;77.2
78704;SHT31;68034;51.966;5.676;2023-04-22T06:40:32;12.1;77.7
78704;SHT31;68034;51.966;5.676;2023-04-22T06:43:01;12.1;77.9
78704;SHT31;68034;51.966;5.676;2023-04-22T06:45:30;12.1;78.0
78704;SHT31;68034;51.966;5.676;2023-04-22T06:48:00;12.1;78.3
78704;SHT31;68034;51.966;5.676;2023-04-22T06:50:29;12.2;79.0
78704;SHT31;68034;51.966;5.676;2023-04-22T06:52:58;12.2;78.8
78704;SHT31;68034;51.966;5.676;2023-04-22T06:55:26;12.3;78.1
78704;SHT31;68034;51.966;5.676;2023-04-22T06:57:55;12.4;78.9
78704;SHT31;68034;51.966;5.676;2023-04-22T07:00:24;12.5;79.1
78704;SHT31;68034;51.966;5.676;2023-04-22T07:02:53;12.5;78.5
78704;SHT31;68034;51.966;5.676;2023-04-22T07:05:23;12.6;78.9
78704;SHT31;68034;51.966;5.676;2023-04-22T07:07:52;12.6;79.0
78704;SHT31;68034;51.966;5.676;2023-04-22T07:10:21;12.7;79.9
78704;SHT31;68034;51.966;5.676;2023-04-22T07:12:50;12.8;79.8
78704;SHT31;68034;51.966;5.676;2023-04-22T07:15:18;12.9;80.2
78704;SHT31;68034;51.966;5.676;2023-04-22T07:17:47;13.0;79.7
78704;SHT31;68034;51.966;5.676;2023-04-22T07:20:16;13.1;78.2
78704;SHT31;68034;51.966;5.676;2023-04-22T07:22:46;13.2;77.3
78704;SHT31;68034;51.966;5.676;2023-04-22T07:25:17;13.2;76.6
78704;SHT31;68034;51.966;5.676;2023-04-22T07:27:46;13.3;77.0
78704;SHT31;68034;51.966;5.676;2023-04-22T07:30:15;13.3;76.3
78704;SHT31;68034;51.966;5.676;2023-04-22T07:32:43;13.4;75.9
78704;SHT31;68034;51.966;5.676;2023-04-22T07:35:12;13.4;77.5
78704;SHT31;68034;51.966;5.676;2023-04-22T07:37:41;13.5;77.4
78704;SHT31;68034;51.966;5.676;2023-04-22T07:40:10;13.6;76.9
78704;SHT31;68034;51.966;5.676;2023-04-22T07:42:39;13.7;77.9
78704;SHT31;68034;51.966;5.676;2023-04-22T07:45:08;13.8;76.1
78704;SHT31;68034;51.966;5.676;2023-04-22T07:47:38;13.8;76.0
78704;SHT31;68034;51.966;5.676;2023-04-22T07:50:07;13.9;76.4
78704;SHT31;68034;51.966;5.676;2023-04-22T07:52:36;13.9;76.0
78704;SHT31;68034;51.966;5.676;2023-04-22T07:55:05;14.0;75.8
78704;SHT31;68034;51.966;5.676;2023-04-22T07:57:34;14.1;75.5
78704;SHT31;68034;51.966;5.676;2023-04-22T08:00:04;14.2;75.6
78704;SHT31;68034;51.966;5.676;2023-04-22T08:02:35;14.3;75.4
78704;SHT31;68034;51.966;5.676;2023-04-22T08:05:04;14.3;75.1
78704;SHT31;68034;51.966;5.676;2023-04-22T08:07:35;14.4;76.1
78704;SHT31;68034;51.966;5.676;2023-04-22T08:10:06;14.5;74.0
78704;SHT31;68034;51.966;5.676;2023-04-22T08:12:37;14.6;73.8
78704;SHT31;68034;51.966;5.676;2023-04-22T08:15:09;14.7;73.6
78704;SHT31;68034;51.966;5.676;2023-04-22T08:17:38;14.7;74.0
78704;SHT31;68034;51.966;5.676;2023-04-22T08:20:07;14.8;73.6
78704;SHT31;68034;51.966;5.676;2023-04-22T08:22:36;14.9;73.3
78704;SHT31;68034;51.966;5.676;2023-04-22T08:25:13;15.0;72.3
78704;SHT31;68034;51.966;5.676;2023-04-22T08:27:41;15.0;72.1
78704;SHT31;68034;51.966;5.676;2023-04-22T08:30:11;15.1;72.2
78704;SHT31;68034;51.966;5.676;2023-04-22T08:32:40;15.1;72.5
78704;SHT31;68034;51.966;5.676;2023-04-22T08:35:09;15.2;72.2
78704;SHT31;68034;51.966;5.676;2023-04-22T08:37:39;15.2;71.5
78704;SHT31;68034;51.966;5.676;2023-04-22T08:40:08;15.3;72.5
78704;SHT31;68034;51.966;5.676;2023-04-22T08:42:39;15.4;72.2
78704;SHT31;68034;51.966;5.676;2023-04-22T08:45:08;15.5;71.8
78704;SHT31;68034;51.966;5.676;2023-04-22T08:47:38;15.6;71.5
78704;SHT31;68034;51.966;5.676;2023-04-22T08:50:08;15.6;70.8
78704;SHT31;68034;51.966;5.676;2023-04-22T08:52:37;15.7;71.2
78704;SHT31;68034;51.966;5.676;2023-04-22T08:55:07;15.8;71.2
78704;SHT31;68034;51.966;5.676;2023-04-22T08:57:37;15.9;70.1
78704;SHT31;68034;51.966;5.676;2023-04-22T09:00:08;16.0;70.6
78704;SHT31;68034;51.966;5.676;2023-04-22T09:02:42;16.1;70.4
78704;SHT31;68034;51.966;5.676;2023-04-22T09:05:12;16.2;71.2
78704;SHT31;68034;51.966;5.676;2023-04-22T09:07:42;16.3;71.4
78704;SHT31;68034;51.966;5.676;2023-04-22T09:10:11;16.4;70.6
78704;SHT31;68034;51.966;5.676;2023-04-22T09:12:41;16.5;70.2
78704;SHT31;68034;51.966;5.676;2023-04-22T09:15:11;16.6;70.6
78704;SHT31;68034;51.966;5.676;2023-04-22T09:17:42;16.7;69.2
78704;SHT31;68034;51.966;5.676;2023-04-22T09:20:11;16.8;68.6
78704;SHT31;68034;51.966;5.676;2023-04-22T09:22:44;17.0;67.7
78704;SHT31;68034;51.966;5.676;2023-04-22T09:25:16;17.0;67.1
78704;SHT31;68034;51.966;5.676;2023-04-22T09:27:49;17.1;65.8
78704;SHT31;68034;51.966;5.676;2023-04-22T09:30:22;17.3;63.2
78704;SHT31;68034;51.966;5.676;2023-04-22T09:32:56;17.3;64.4
78704;SHT31;68034;51.966;5.676;2023-04-22T09:35:31;17.4;64.6
78704;SHT31;68034;51.966;5.676;2023-04-22T09:38:02;17.5;63.5
78704;SHT31;68034;51.966;5.676;2023-04-22T09:40:31;17.5;64.0
78704;SHT31;68034;51.966;5.676;2023-04-22T09:43:03;17.6;63.3
78704;SHT31;68034;51.966;5.676;2023-04-22T09:45:33;17.7;61.5
78704;SHT31;68034;51.966;5.676;2023-04-22T09:48:06;17.8;62.7
78704;SHT31;68034;51.966;5.676;2023-04-22T09:50:37;18.0;63.7
78704;SHT31;68034;51.966;5.676;2023-04-22T09:53:07;18.0;60.1
78704;SHT31;68034;51.966;5.676;2023-04-22T09:55:39;18.1;60.6
78704;SHT31;68034;51.966;5.676;2023-04-22T09:58:11;18.2;59.1
78704;SHT31;68034;51.966;5.676;2023-04-22T10:00:43;18.2;58.0
78704;SHT31;68034;51.966;5.676;2023-04-22T10:03:13;18.3;60.0
78704;SHT31;68034;51.966;5.676;2023-04-22T10:05:42;18.3;60.5
78704;SHT31;68034;51.966;5.676;2023-04-22T10:08:13;18.4;59.6
78704;SHT31;68034;51.966;5.676;2023-04-22T10:10:47;18.4;59.6
78704;SHT31;68034;51.966;5.676;2023-04-22T10:13:16;18.5;59.1
78704;SHT31;68034;51.966;5.676;2023-04-22T10:15:49;18.5;60.6
78704;SHT31;68034;51.966;5.676;2023-04-22T10:18:21;18.5;61.5
78704;SHT31;68034;51.966;5.676;2023-04-22T10:20:53;18.5;62.7
78704;SHT31;68034;51.966;5.676;2023-04-22T10:23:24;18.6;61.7
78704;SHT31;68034;51.966;5.676;2023-04-22T10:25:54;18.7;60.0
78704;SHT31;68034;51.966;5.676;2023-04-22T10:28:27;18.8;60.5
78704;SHT31;68034;51.966;5.676;2023-04-22T10:30:58;18.8;59.8
78704;SHT31;68034;51.966;5.676;2023-04-22T10:33:37;18.9;57.6
78704;SHT31;68034;51.966;5.676;2023-04-22T10:36:07;18.9;59.6
78704;SHT31;68034;51.966;5.676;2023-04-22T10:38:38;19.0;61.0
78704;SHT31;68034;51.966;5.676;2023-04-22T10:41:12;19.0;59.5
78704;SHT31;68034;51.966;5.676;2023-04-22T10:43:43;19.1;60.3
78704;SHT31;68034;51.966;5.676;2023-04-22T10:49:20;19.3;60.8
78704;SHT31;68034;51.966;5.676;2023-04-22T10:51:51;19.3;58.4
78704;SHT31;68034;51.966;5.676;2023-04-22T10:54:57;19.4;58.8
78704;SHT31;68034;51.966;5.676;2023-04-22T10:57:40;19.5;58.0
78704;SHT31;68034;51.966;5.676;2023-04-22T11:00:30;19.5;58.3
78704;SHT31;68034;51.966;5.676;2023-04-22T11:03:11;19.6;58.0
78704;SHT31;68034;51.966;5.676;2023-04-22T11:05:43;19.7;57.7
78704;SHT31;68034;51.966;5.676;2023-04-22T11:08:17;19.7;58.6
78704;SHT31;68034;51.966;5.676;2023-04-22T11:10:50;19.7;56.8
78704;SHT31;68034;51.966;5.676;2023-04-22T11:13:21;19.8;57.0
78704;SHT31;68034;51.966;5.676;2023-04-22T11:15:53;19.8;59.7
78704;SHT31;68034;51.966;5.676;2023-04-22T11:18:24;19.8;58.5
78704;SHT31;68034;51.966;5.676;2023-04-22T11:20:54;19.9;57.9
78704;SHT31;68034;51.966;5.676;2023-04-22T11:23:25;20.0;58.9
78704;SHT31;68034;51.966;5.676;2023-04-22T11:25:56;20.1;57.4
78704;SHT31;68034;51.966;5.676;2023-04-22T11:28:25;20.2;56.0
78704;SHT31;68034;51.966;5.676;2023-04-22T11:31:02;20.2;56.4
78704;SHT31;68034;51.966;5.676;2023-04-22T11:33:33;20.3;55.3
78704;SHT31;68034;51.966;5.676;2023-04-22T11:36:04;20.3;54.6
78704;SHT31;68034;51.966;5.676;2023-04-22T11:38:37;20.3;54.3
78704;SHT31;68034;51.966;5.676;2023-04-22T11:41:06;20.3;53.9
78704;SHT31;68034;51.966;5.676;2023-04-22T11:43:51;20.3;53.9
78704;SHT31;68034;51.966;5.676;2023-04-22T11:46:28;20.2;53.4
78704;SHT31;68034;51.966;5.676;2023-04-22T11:49:15;20.2;52.9
78704;SHT31;68034;51.966;5.676;2023-04-22T11:51:55;20.1;52.8
78704;SHT31;68034;51.966;5.676;2023-04-22T11:54:33;19.9;53.5
78704;SHT31;68034;51.966;5.676;2023-04-22T11:57:03;19.8;54.7
78704;SHT31;68034;51.966;5.676;2023-04-22T11:59:35;19.7;56.3
78704;SHT31;68034;51.966;5.676;2023-04-22T12:02:08;19.6;56.5
78704;SHT31;68034;51.966;5.676;2023-04-22T12:04:38;19.6;57.3
78704;SHT31;68034;51.966;5.676;2023-04-22T12:07:07;19.5;57.6
78704;SHT31;68034;51.966;5.676;2023-04-22T12:09:38;19.5;58.1
78704;SHT31;68034;51.966;5.676;2023-04-22T12:12:08;19.4;57.1
78704;SHT31;68034;51.966;5.676;2023-04-22T12:14:37;19.3;58.5
78704;SHT31;68034;51.966;5.676;2023-04-22T12:17:08;19.3;59.2
78704;SHT31;68034;51.966;5.676;2023-04-22T12:19:40;19.2;59.3
78704;SHT31;68034;51.966;5.676;2023-04-22T12:22:09;19.2;60.5
78704;SHT31;68034;51.966;5.676;2023-04-22T12:24:45;19.1;63.1
78704;SHT31;68034;51.966;5.676;2023-04-22T12:27:14;19.1;64.8
78704;SHT31;68034;51.966;5.676;2023-04-22T12:29:53;19.0;64.0
78704;SHT31;68034;51.966;5.676;2023-04-22T12:32:24;18.9;66.5
78704;SHT31;68034;51.966;5.676;2023-04-22T12:34:56;18.8;67.4
78704;SHT31;68034;51.966;5.676;2023-04-22T12:37:26;18.7;68.6
78704;SHT31;68034;51.966;5.676;2023-04-22T12:39:55;18.6;69.0
78704;SHT31;68034;51.966;5.676;2023-04-22T12:42:24;18.5;69.5
78704;SHT31;68034;51.966;5.676;2023-04-22T12:44:53;18.4;68.9
78704;SHT31;68034;51.966;5.676;2023-04-22T12:47:21;18.4;67.9
78704;SHT31;68034;51.966;5.676;2023-04-22T12:49:50;18.3;69.2
78704;SHT31;68034;51.966;5.676;2023-04-22T12:52:19;18.3;69.2
78704;SHT31;68034;51.966;5.676;2023-04-22T12:54:48;18.2;70.1
78704;SHT31;68034;51.966;5.676;2023-04-22T12:57:17;18.2;69.9
78704;SHT31;68034;51.966;5.676;2023-04-22T12:59:46;18.2;70.6
78704;SHT31;68034;51.966;5.676;2023-04-22T13:02:15;18.1;69.4
78704;SHT31;68034;51.966;5.676;2023-04-22T13:04:43;18.1;69.4
78704;SHT31;68034;51.966;5.676;2023-04-22T13:07:13;18.1;69.5
78704;SHT31;68034;51.966;5.676;2023-04-22T13:09:43;18.1;69.1
78704;SHT31;68034;51.966;5.676;2023-04-22T13:12:12;18.1;69.7
78704;SHT31;68034;51.966;5.676;2023-04-22T13:14:40;18.0;71.2
78704;SHT31;68034;51.966;5.676;2023-04-22T13:17:10;18.0;70.9
78704;SHT31;68034;51.966;5.676;2023-04-22T13:19:39;18.0;71.8
78704;SHT31;68034;51.966;5.676;2023-04-22T13:22:09;18.0;71.8
78704;SHT31;68034;51.966;5.676;2023-04-22T13:24:39;18.1;71.2
78704;SHT31;68034;51.966;5.676;2023-04-22T13:27:12;18.2;71.7
78704;SHT31;68034;51.966;5.676;2023-04-22T13:29:47;18.3;71.4
78704;SHT31;68034;51.966;5.676;2023-04-22T13:32:23;18.3;72.3
78704;SHT31;68034;51.966;5.676;2023-04-22T13:34:52;18.3;73.4
78704;SHT31;68034;51.966;5.676;2023-04-22T13:37:21;18.3;72.5
78704;SHT31;68034;51.966;5.676;2023-04-22T13:39:49;18.3;72.6
78704;SHT31;68034;51.966;5.676;2023-04-22T13:42:18;18.2;72.8
78704;SHT31;68034;51.966;5.676;2023-04-22T13:44:47;18.1;73.4
78704;SHT31;68034;51.966;5.676;2023-04-22T13:47:16;18.0;73.4
78704;SHT31;68034;51.966;5.676;2023-04-22T13:49:44;17.9;73.9
78704;SHT31;68034;51.966;5.676;2023-04-22T13:52:13;17.8;73.8
78704;SHT31;68034;51.966;5.676;2023-04-22T13:54:42;17.7;74.7
78704;SHT31;68034;51.966;5.676;2023-04-22T13:57:11;17.7;75.1
78704;SHT31;68034;51.966;5.676;2023-04-22T13:59:40;17.6;75.4
78704;SHT31;68034;51.966;5.676;2023-04-22T14:02:08;17.5;75.8
78704;SHT31;68034;51.966;5.676;2023-04-22T14:04:37;17.5;75.0
78704;SHT31;68034;51.966;5.676;2023-04-22T14:07:06;17.5;75.2
78704;SHT31;68034;51.966;5.676;2023-04-22T14:09:47;17.4;74.9
78704;SHT31;68034;51.966;5.676;2023-04-22T14:12:20;17.4;76.4
78704;SHT31;68034;51.966;5.676;2023-04-22T14:14:48;17.3;76.6
78704;SHT31;68034;51.966;5.676;2023-04-22T14:17:17;17.3;76.0
78704;SHT31;68034;51.966;5.676;2023-04-22T14:19:48;17.3;76.2
78704;SHT31;68034;51.966;5.676;2023-04-22T14:22:17;17.3;76.7
78704;SHT31;68034;51.966;5.676;2023-04-22T14:24:46;17.3;76.3
78704;SHT31;68034;51.966;5.676;2023-04-22T14:27:15;17.3;76.4
78704;SHT31;68034;51.966;5.676;2023-04-22T14:29:44;17.3;76.1
78704;SHT31;68034;51.966;5.676;2023-04-22T14:32:13;17.3;77.0
78704;SHT31;68034;51.966;5.676;2023-04-22T14:34:41;17.3;76.6
78704;SHT31;68034;51.966;5.676;2023-04-22T14:37:11;17.4;74.7
78704;SHT31;68034;51.966;5.676;2023-04-22T14:39:40;17.4;75.5
78704;SHT31;68034;51.966;5.676;2023-04-22T14:42:08;17.4;75.6
78704;SHT31;68034;51.966;5.676;2023-04-22T14:44:37;17.4;74.0
78704;SHT31;68034;51.966;5.676;2023-04-22T14:47:08;17.4;74.6
78704;SHT31;68034;51.966;5.676;2023-04-22T14:49:36;17.4;74.4
78704;SHT31;68034;51.966;5.676;2023-04-22T14:52:05;17.4;73.1
78704;SHT31;68034;51.966;5.676;2023-04-22T14:54:35;17.4;73.5
78704;SHT31;68034;51.966;5.676;2023-04-22T14:57:03;17.3;74.0
78704;SHT31;68034;51.966;5.676;2023-04-22T14:59:32;17.3;73.8
78704;SHT31;68034;51.966;5.676;2023-04-22T15:02:02;17.3;73.2
78704;SHT31;68034;51.966;5.676;2023-04-22T15:04:30;17.3;73.2
78704;SHT31;68034;51.966;5.676;2023-04-22T15:06:59;17.2;73.1
78704;SHT31;68034;51.966;5.676;2023-04-22T15:09:28;17.2;74.0
78704;SHT31;68034;51.966;5.676;2023-04-22T15:11:57;17.2;75.0
78704;SHT31;68034;51.966;5.676;2023-04-22T15:14:30;17.2;75.0
78704;SHT31;68034;51.966;5.676;2023-04-22T15:17:00;17.2;76.0
78704;SHT31;68034;51.966;5.676;2023-04-22T15:19:29;17.2;76.5
78704;SHT31;68034;51.966;5.676;2023-04-22T15:21:58;17.2;76.1
78704;SHT31;68034;51.966;5.676;2023-04-22T15:24:27;17.1;75.9
78704;SHT31;68034;51.966;5.676;2023-04-22T15:26:55;17.1;76.2
78704;SHT31;68034;51.966;5.676;2023-04-22T15:29:26;17.1;76.5
78704;SHT31;68034;51.966;5.676;2023-04-22T15:31:55;17.1;76.0
78704;SHT31;68034;51.966;5.676;2023-04-22T15:34:24;17.1;75.4
78704;SHT31;68034;51.966;5.676;2023-04-22T15:36:53;17.1;76.2
78704;SHT31;68034;51.966;5.676;2023-04-22T15:39:22;17.1;76.0
78704;SHT31;68034;51.966;5.676;2023-04-22T15:41:51;17.0;76.1
78704;SHT31;68034;51.966;5.676;2023-04-22T15:44:20;17.0;75.8
78704;SHT31;68034;51.966;5.676;2023-04-22T15:46:50;17.0;76.3
78704;SHT31;68034;51.966;5.676;2023-04-22T15:49:19;17.0;76.6
78704;SHT31;68034;51.966;5.676;2023-04-22T15:51:48;17.0;76.6
78704;SHT31;68034;51.966;5.676;2023-04-22T15:54:18;16.9;76.9
78704;SHT31;68034;51.966;5.676;2023-04-22T15:56:47;16.9;76.3
78704;SHT31;68034;51.966;5.676;2023-04-22T15:59:16;16.9;76.4
78704;SHT31;68034;51.966;5.676;2023-04-22T16:01:45;16.9;76.7
78704;SHT31;68034;51.966;5.676;2023-04-22T16:04:13;16.9;76.4
78704;SHT31;68034;51.966;5.676;2023-04-22T16:06:42;16.9;75.8
78704;SHT31;68034;51.966;5.676;2023-04-22T16:09:12;16.9;75.9
78704;SHT31;68034;51.966;5.676;2023-04-22T16:11:41;16.9;75.8
78704;SHT31;68034;51.966;5.676;2023-04-22T16:14:10;16.9;75.4
78704;SHT31;68034;51.966;5.676;2023-04-22T16:16:41;16.9;75.6
78704;SHT31;68034;51.966;5.676;2023-04-22T16:19:11;16.9;75.6
78704;SHT31;68034;51.966;5.676;2023-04-22T16:21:40;17.0;75.3
78704;SHT31;68034;51.966;5.676;2023-04-22T16:24:10;17.0;74.7